createdAt,value
2022-11-12T00:00:09.440Z,210.00
2022-11-12T00:00:44.586Z,190.98
2022-11-12T00:01:19.998Z,170.42
2022-11-12T00:01:55.259Z,173.26
2022-11-12T00:02:30.408Z,124.90
2022-11-12T00:03:05.604Z,120.00
2022-11-12T00:03:41.039Z,120.00
2022-11-12T00:04:16.619Z,120.00
2022-11-12T00:04:51.942Z,120.00
2022-11-12T00:05:27.037Z,120.00
2022-11-12T00:06:02.168Z,120.16
2022-11-12T00:06:37.500Z,120.00
2022-11-12T00:07:12.738Z,120.00
2022-11-12T00:07:47.949Z,121.95
2022-11-12T00:08:23.195Z,121.61
2022-11-12T00:08:58.885Z,179.29
2022-11-12T00:09:34.287Z,231.37
2022-11-12T00:10:09.596Z,233.30
2022-11-12T00:10:44.884Z,233.00
2022-11-12T00:11:20.310Z,233.00
2022-11-12T00:11:55.799Z,233.00
2022-11-12T00:12:31.123Z,233.00
2022-11-12T00:13:06.251Z,233.00
2022-11-12T00:13:41.562Z,233.00
2022-11-12T00:14:16.789Z,233.00
2022-11-12T00:14:52.197Z,233.00
2022-11-12T00:15:27.336Z,233.00
2022-11-12T00:16:02.322Z,233.00
2022-11-12T00:16:37.551Z,233.00
2022-11-12T00:17:12.865Z,184.82
2022-11-12T00:17:48.072Z,233.00
2022-11-12T00:18:23.440Z,233.00
2022-11-12T00:18:58.183Z,227.12
2022-11-12T00:19:33.404Z,219.30
2022-11-12T00:20:08.501Z,233.00
2022-11-12T00:20:43.805Z,233.00
2022-11-12T00:21:19.193Z,233.00
2022-11-12T00:21:54.618Z,233.00
2022-11-12T00:22:29.927Z,233.00
2022-11-12T00:23:04.913Z,233.00
2022-11-12T00:23:40.020Z,233.00
2022-11-12T00:24:15.201Z,233.00
2022-11-12T00:24:50.306Z,233.00
2022-11-12T00:25:25.604Z,233.00
2022-11-12T00:26:00.710Z,233.00
2022-11-12T00:26:36.004Z,233.00
2022-11-12T00:27:11.343Z,233.00
2022-11-12T00:27:46.641Z,233.00
2022-11-12T00:28:21.737Z,233.00
2022-11-12T00:28:56.849Z,233.00
2022-11-12T00:29:31.936Z,233.00
2022-11-12T00:30:06.941Z,233.00
2022-11-12T00:30:42.072Z,233.00
2022-11-12T00:31:17.564Z,233.00
2022-11-12T00:31:52.670Z,233.00
2022-11-12T00:32:27.970Z,233.00
2022-11-12T00:33:03.091Z,233.00
2022-11-12T00:33:38.354Z,233.00
2022-11-12T00:34:13.447Z,233.00
2022-11-12T00:34:48.891Z,233.00
2022-11-12T00:35:24.178Z,233.00
2022-11-12T00:35:59.491Z,233.00
2022-11-12T00:36:34.881Z,233.00
2022-11-12T00:37:10.188Z,233.00
2022-11-12T00:37:45.595Z,233.00
2022-11-12T00:38:20.814Z,233.00
2022-11-12T00:38:56.124Z,233.00
2022-11-12T00:39:31.630Z,233.00
2022-11-12T00:40:06.837Z,236.67
2022-11-12T00:40:42.329Z,246.05
2022-11-12T00:41:17.532Z,249.37
2022-11-12T00:41:52.812Z,233.19
2022-11-12T00:42:28.107Z,233.00
2022-11-12T00:43:03.692Z,233.00
2022-11-12T00:43:38.904Z,233.19
2022-11-12T00:44:14.708Z,233.00
2022-11-12T00:44:50.195Z,233.00
2022-11-12T00:45:25.807Z,254.92
2022-11-12T00:46:00.994Z,255.00
2022-11-12T00:46:36.112Z,255.00
2022-11-12T00:47:11.398Z,255.00
2022-11-12T00:47:46.664Z,255.00
2022-11-12T00:48:21.800Z,254.39
2022-11-12T00:48:57.119Z,255.00
2022-11-12T00:49:32.505Z,255.00
2022-11-12T00:50:07.604Z,255.00
2022-11-12T00:50:43.218Z,238.08
2022-11-12T00:51:18.593Z,236.50
2022-11-12T00:51:53.796Z,240.05
2022-11-12T00:52:29.117Z,246.18
2022-11-12T00:53:04.418Z,252.40
2022-11-12T00:53:39.756Z,253.52
2022-11-12T00:54:15.326Z,252.82
2022-11-12T00:54:50.674Z,248.18
2022-11-12T00:55:25.886Z,253.70
2022-11-12T00:56:01.013Z,248.06
2022-11-12T00:56:36.122Z,246.13
2022-11-12T00:57:11.658Z,238.13
2022-11-12T00:57:46.882Z,233.19
2022-11-12T00:58:22.643Z,233.00
2022-11-12T00:58:58.313Z,233.00
2022-11-12T00:59:33.640Z,233.19
2022-11-12T01:00:09.077Z,234.42
2022-11-12T01:00:44.593Z,233.69
2022-11-12T01:01:19.986Z,233.00
2022-11-12T01:01:55.115Z,211.36
2022-11-12T01:02:30.243Z,210.00
2022-11-12T01:03:05.779Z,209.39
2022-11-12T01:03:41.082Z,209.88
2022-11-12T01:04:16.370Z,170.38
2022-11-12T01:04:51.722Z,173.23
2022-11-12T01:05:26.967Z,171.77
2022-11-12T01:06:02.350Z,173.21
2022-11-12T01:06:37.319Z,173.26
2022-11-12T01:07:12.445Z,173.28
2022-11-12T01:07:50.486Z,167.54
2022-11-12T01:08:24.111Z,176.18
2022-11-12T01:08:58.797Z,174.70
2022-11-12T01:09:34.510Z,171.80
2022-11-12T01:10:09.721Z,173.30
2022-11-12T01:10:44.938Z,174.70
2022-11-12T01:11:20.288Z,210.72
2022-11-12T01:11:55.489Z,193.97
2022-11-12T01:12:30.740Z,210.00
2022-11-12T01:13:06.038Z,210.00
2022-11-12T01:13:44.117Z,210.00
2022-11-12T01:14:16.662Z,209.39
2022-11-12T01:14:51.970Z,210.00
2022-11-12T01:15:27.173Z,210.00
2022-11-12T01:16:02.172Z,221.62
2022-11-12T01:16:37.485Z,233.00
2022-11-12T01:17:12.826Z,233.00
2022-11-12T01:17:48.013Z,232.43
2022-11-12T01:18:23.366Z,255.00
2022-11-12T01:18:58.528Z,255.00
2022-11-12T01:19:33.556Z,255.00
2022-11-12T01:20:08.936Z,255.00
2022-11-12T01:20:44.143Z,255.00
2022-11-12T01:21:19.246Z,255.00
2022-11-12T01:21:54.548Z,255.00
2022-11-12T01:22:29.573Z,255.00
2022-11-12T01:23:04.970Z,255.00
2022-11-12T01:23:40.300Z,255.00
2022-11-12T01:24:15.482Z,255.00
2022-11-12T01:24:50.779Z,255.00
2022-11-12T01:25:26.098Z,255.00
2022-11-12T01:26:01.425Z,255.00
2022-11-12T01:26:37.449Z,255.00
2022-11-12T01:27:12.945Z,255.00
2022-11-12T01:27:48.642Z,255.00
2022-11-12T01:28:24.183Z,255.00
2022-11-12T01:28:59.436Z,255.00
2022-11-12T01:29:34.524Z,255.00
2022-11-12T01:30:09.951Z,255.00
2022-11-12T01:30:45.195Z,255.00
2022-11-12T01:31:20.499Z,255.00
2022-11-12T01:31:56.002Z,255.00
2022-11-12T01:32:31.098Z,255.00
2022-11-12T01:33:06.496Z,255.00
2022-11-12T01:33:41.689Z,255.00
2022-11-12T01:34:17.101Z,171.08
2022-11-12T01:34:52.523Z,194.36
2022-11-12T01:35:27.943Z,205.22
2022-11-12T01:36:02.997Z,189.73
2022-11-12T01:36:38.467Z,197.50
2022-11-12T01:37:13.757Z,210.00
2022-11-12T01:37:48.706Z,210.00
2022-11-12T01:38:24.808Z,210.00
2022-11-12T01:38:59.758Z,210.00
2022-11-12T01:39:35.380Z,209.28
2022-11-12T01:40:10.786Z,209.39
2022-11-12T01:40:46.575Z,209.88
2022-11-12T01:41:22.164Z,209.88
2022-11-12T01:41:57.441Z,210.00
2022-11-12T01:42:32.466Z,210.00
2022-11-12T01:43:07.651Z,210.00
2022-11-12T01:43:43.049Z,209.88
2022-11-12T01:44:18.401Z,210.00
2022-11-12T01:44:53.396Z,209.39
2022-11-12T01:45:28.851Z,209.39
2022-11-12T01:46:04.017Z,209.39
2022-11-12T01:46:39.132Z,210.00
2022-11-12T01:47:14.401Z,209.88
2022-11-12T01:47:49.483Z,209.88
2022-11-12T01:48:25.156Z,209.28
2022-11-12T01:49:00.226Z,209.88
2022-11-12T01:49:35.470Z,209.65
2022-11-12T01:50:10.575Z,210.00
2022-11-12T01:50:45.943Z,210.00
2022-11-12T01:51:21.179Z,209.39
2022-11-12T01:51:56.483Z,244.76
2022-11-12T01:52:31.912Z,229.91
2022-11-12T01:53:07.342Z,215.53
2022-11-12T01:53:42.949Z,210.00
2022-11-12T01:54:18.257Z,195.49
2022-11-12T01:54:53.845Z,210.00
2022-11-12T01:55:29.236Z,183.14
2022-11-12T01:56:04.516Z,77.80
2022-11-12T01:56:42.333Z,208.77
2022-11-12T01:57:14.667Z,209.88
2022-11-12T01:57:50.049Z,209.88
2022-11-12T01:58:25.911Z,209.88
2022-11-12T01:59:00.682Z,216.35
2022-11-12T01:59:36.053Z,207.55
2022-11-12T02:00:11.230Z,227.85
2022-11-12T02:00:46.422Z,170.32
2022-11-12T02:01:21.817Z,171.88
2022-11-12T02:01:57.065Z,103.97
2022-11-12T02:02:32.680Z,183.27
2022-11-12T02:03:07.811Z,224.88
2022-11-12T02:03:43.382Z,209.28
2022-11-12T02:04:19.057Z,255.00
2022-11-12T02:04:54.426Z,236.32
2022-11-12T02:05:29.767Z,209.39
2022-11-12T02:06:04.994Z,210.00
2022-11-12T02:06:40.360Z,210.00
2022-11-12T02:07:15.763Z,210.00
2022-11-12T02:07:51.223Z,209.88
2022-11-12T02:08:27.065Z,221.01
2022-11-12T02:09:02.091Z,198.39
2022-11-12T02:09:37.484Z,210.00
2022-11-12T02:10:13.003Z,213.47
2022-11-12T02:10:48.305Z,75.00
2022-11-12T02:11:23.614Z,76.96
2022-11-12T02:11:58.829Z,75.00
2022-11-12T02:12:34.120Z,119.29
2022-11-12T02:13:09.747Z,174.72
2022-11-12T02:13:45.701Z,196.64
2022-11-12T02:14:21.204Z,209.39
2022-11-12T02:14:56.573Z,210.00
2022-11-12T02:15:32.274Z,207.34
2022-11-12T02:16:07.492Z,210.00
2022-11-12T02:16:42.798Z,210.00
2022-11-12T02:17:17.902Z,211.32
2022-11-12T02:17:53.426Z,209.28
2022-11-12T02:18:28.712Z,212.33
2022-11-12T02:19:03.563Z,201.58
2022-11-12T02:19:39.063Z,197.99
2022-11-12T02:20:14.272Z,207.90
2022-11-12T02:20:49.263Z,202.81
2022-11-12T02:21:24.401Z,179.43
2022-11-12T02:21:59.397Z,215.26
2022-11-12T02:22:34.521Z,211.78
2022-11-12T02:23:09.963Z,223.88
2022-11-12T02:23:45.212Z,200.69
2022-11-12T02:24:20.703Z,200.30
2022-11-12T02:24:58.592Z,205.40
2022-11-12T02:25:33.975Z,202.94
2022-11-12T02:26:09.128Z,220.42
2022-11-12T02:26:44.421Z,194.65
2022-11-12T02:27:20.027Z,205.19
2022-11-12T02:27:55.212Z,220.48
2022-11-12T02:28:30.608Z,214.27
2022-11-12T02:29:05.925Z,207.26
2022-11-12T02:29:41.332Z,206.56
2022-11-12T02:30:16.421Z,218.69
2022-11-12T02:30:51.932Z,206.78
2022-11-12T02:31:27.229Z,210.00
2022-11-12T02:32:02.931Z,201.90
2022-11-12T02:32:38.220Z,217.16
2022-11-12T02:33:13.533Z,218.16
2022-11-12T02:33:49.020Z,205.97
2022-11-12T02:34:24.168Z,207.02
2022-11-12T02:34:59.275Z,212.07
2022-11-12T02:35:34.464Z,212.05
2022-11-12T02:36:09.668Z,220.32
2022-11-12T02:36:44.946Z,227.25
2022-11-12T02:37:20.258Z,234.32
2022-11-12T02:37:55.551Z,181.96
2022-11-12T02:38:30.866Z,213.63
2022-11-12T02:39:05.980Z,222.82
2022-11-12T02:39:41.063Z,214.15
2022-11-12T02:40:16.572Z,224.76
2022-11-12T02:40:51.600Z,211.32
2022-11-12T02:41:26.792Z,182.81
2022-11-12T02:42:02.397Z,212.13
2022-11-12T02:42:37.404Z,220.63
2022-11-12T02:43:13.049Z,201.83
2022-11-12T02:43:48.008Z,209.87
2022-11-12T02:44:23.330Z,199.71
2022-11-12T02:44:59.219Z,225.39
2022-11-12T02:45:34.619Z,197.38
2022-11-12T02:46:09.799Z,230.53
2022-11-12T02:46:45.006Z,219.75
2022-11-12T02:47:20.404Z,214.25
2022-11-12T02:47:55.614Z,213.54
2022-11-12T02:48:30.783Z,223.10
2022-11-12T02:49:05.811Z,225.78
2022-11-12T02:49:41.009Z,208.63
2022-11-12T02:50:16.409Z,220.07
2022-11-12T02:50:51.507Z,214.03
2022-11-12T02:51:26.919Z,213.50
2022-11-12T02:52:02.232Z,203.41
2022-11-12T02:52:37.656Z,207.82
2022-11-12T02:53:13.054Z,217.44
2022-11-12T02:53:48.650Z,301.48
2022-11-12T02:54:24.233Z,215.45
2022-11-12T02:54:59.429Z,209.28
2022-11-12T02:55:34.518Z,203.14
2022-11-12T02:56:09.713Z,212.45
2022-11-12T02:56:45.109Z,197.96
2022-11-12T02:57:20.412Z,201.82
2022-11-12T02:57:55.818Z,252.12
2022-11-12T02:58:31.211Z,200.40
2022-11-12T02:59:06.414Z,205.94
2022-11-12T02:59:41.915Z,97.38
2022-11-12T03:00:17.659Z,193.46
2022-11-12T03:00:52.806Z,179.37
2022-11-12T03:01:28.116Z,215.08
2022-11-12T03:02:03.361Z,212.59
2022-11-12T03:02:38.652Z,180.06
2022-11-12T03:03:13.877Z,200.68
2022-11-12T03:03:48.960Z,94.84
2022-11-12T03:04:23.957Z,177.44
2022-11-12T03:04:59.372Z,84.10
2022-11-12T03:05:34.472Z,196.21
2022-11-12T03:06:09.876Z,208.28
2022-11-12T03:06:45.143Z,214.38
2022-11-12T03:07:20.338Z,209.28
2022-11-12T03:07:55.576Z,209.89
2022-11-12T03:08:31.419Z,186.63
2022-11-12T03:09:06.828Z,196.30
2022-11-12T03:09:42.116Z,198.08
2022-11-12T03:10:17.708Z,197.95
2022-11-12T03:10:52.818Z,209.18
2022-11-12T03:11:28.245Z,88.43
2022-11-12T03:12:03.632Z,196.90
2022-11-12T03:12:38.843Z,185.17
2022-11-12T03:13:14.285Z,206.31
2022-11-12T03:13:49.388Z,208.48
2022-11-12T03:14:24.690Z,199.85
2022-11-12T03:14:59.885Z,226.46
2022-11-12T03:15:34.892Z,201.89
2022-11-12T03:16:10.179Z,317.81
2022-11-12T03:16:45.600Z,236.93
2022-11-12T03:17:21.205Z,174.47
2022-11-12T03:17:56.391Z,227.82
2022-11-12T03:18:31.696Z,210.59
2022-11-12T03:19:06.899Z,195.90
2022-11-12T03:19:42.103Z,212.89
2022-11-12T03:20:17.115Z,163.80
2022-11-12T03:20:52.412Z,110.23
2022-11-12T03:21:27.710Z,151.95
2022-11-12T03:22:03.114Z,192.52
2022-11-12T03:22:38.527Z,183.40
2022-11-12T03:23:13.728Z,176.49
2022-11-12T03:23:49.341Z,99.09
2022-11-12T03:24:24.366Z,193.25
2022-11-12T03:24:59.460Z,200.45
2022-11-12T03:25:35.071Z,213.47
2022-11-12T03:26:10.248Z,228.66
2022-11-12T03:26:45.459Z,157.05
2022-11-12T03:27:20.652Z,210.76
2022-11-12T03:27:55.756Z,209.90
2022-11-12T03:28:31.163Z,195.82
2022-11-12T03:29:06.356Z,209.24
2022-11-12T03:29:41.897Z,213.49
2022-11-12T03:30:17.087Z,208.36
2022-11-12T03:30:52.279Z,210.64
2022-11-12T03:31:27.798Z,155.73
2022-11-12T03:32:02.985Z,199.67
2022-11-12T03:32:38.083Z,207.60
2022-11-12T03:33:13.284Z,199.31
2022-11-12T03:33:48.702Z,187.69
2022-11-12T03:34:23.808Z,186.23
2022-11-12T03:34:58.916Z,187.05
2022-11-12T03:35:34.426Z,199.97
2022-11-12T03:36:09.414Z,187.83
2022-11-12T03:36:44.839Z,169.05
2022-11-12T03:37:20.133Z,199.31
2022-11-12T03:37:55.571Z,191.58
2022-11-12T03:38:31.187Z,212.64
2022-11-12T03:39:06.573Z,210.22
2022-11-12T03:39:41.788Z,170.39
2022-11-12T03:40:17.311Z,205.33
2022-11-12T03:40:52.332Z,202.49
2022-11-12T03:41:27.730Z,213.09
2022-11-12T03:42:03.017Z,190.76
2022-11-12T03:42:38.222Z,207.59
2022-11-12T03:43:13.506Z,219.83
2022-11-12T03:43:48.917Z,220.00
2022-11-12T03:44:23.919Z,142.98
2022-11-12T03:44:58.912Z,202.68
2022-11-12T03:45:34.488Z,165.83
2022-11-12T03:46:09.778Z,208.02
2022-11-12T03:46:45.084Z,254.52
2022-11-12T03:47:20.187Z,56.32
2022-11-12T03:47:55.315Z,211.78
2022-11-12T03:48:30.328Z,228.68
2022-11-12T03:49:05.623Z,59.61
2022-11-12T03:49:41.130Z,75.00
2022-11-12T03:50:16.417Z,75.00
2022-11-12T03:50:51.843Z,244.10
2022-11-12T03:51:26.839Z,213.77
2022-11-12T03:52:01.928Z,191.21
2022-11-12T03:52:36.932Z,197.30
2022-11-12T03:53:12.215Z,41.67
2022-11-12T03:53:47.536Z,30.00
2022-11-12T03:54:22.724Z,216.21
2022-11-12T03:54:58.327Z,209.88
2022-11-12T03:55:33.703Z,210.00
2022-11-12T03:56:09.139Z,210.00
2022-11-12T03:56:44.333Z,209.39
2022-11-12T03:57:19.416Z,209.88
2022-11-12T03:57:54.736Z,209.39
2022-11-12T03:58:30.123Z,209.16
2022-11-12T03:59:05.431Z,210.00
2022-11-12T03:59:40.647Z,208.77
2022-11-12T04:00:15.927Z,209.39
2022-11-12T04:00:51.274Z,219.46
2022-11-12T04:01:26.579Z,200.08
2022-11-12T04:02:01.999Z,236.33
2022-11-12T04:02:37.279Z,233.00
2022-11-12T04:03:12.790Z,72.90
2022-11-12T04:03:48.044Z,164.41
2022-11-12T04:04:23.332Z,229.48
2022-11-12T04:04:58.649Z,199.14
2022-11-12T04:05:33.922Z,174.72
2022-11-12T04:06:09.221Z,280.73
2022-11-12T04:06:44.264Z,300.00
2022-11-12T04:07:19.663Z,300.00
2022-11-12T04:07:55.027Z,313.76
2022-11-12T04:08:30.210Z,77.92
2022-11-12T04:09:05.425Z,75.00
2022-11-12T04:09:40.610Z,75.00
2022-11-12T04:10:15.832Z,75.00
2022-11-12T04:10:50.944Z,75.00
2022-11-12T04:11:25.967Z,75.00
2022-11-12T04:12:00.962Z,75.00
2022-11-12T04:12:35.952Z,75.00
2022-11-12T04:13:11.174Z,75.00
2022-11-12T04:13:46.456Z,75.00
2022-11-12T04:14:21.759Z,75.00
2022-11-12T04:14:57.268Z,75.00
2022-11-12T04:15:32.461Z,75.00
2022-11-12T04:16:07.474Z,75.00
2022-11-12T04:16:42.844Z,75.00
2022-11-12T04:17:18.171Z,75.00
2022-11-12T04:17:53.355Z,75.00
2022-11-12T04:18:28.569Z,75.00
2022-11-12T04:19:03.671Z,75.00
2022-11-12T04:19:39.080Z,75.00
2022-11-12T04:20:14.580Z,75.00
2022-11-12T04:20:49.768Z,75.00
2022-11-12T04:21:25.072Z,75.00
2022-11-12T04:22:00.477Z,75.00
2022-11-12T04:22:35.788Z,75.00
2022-11-12T04:23:11.196Z,75.00
2022-11-12T04:23:46.387Z,208.06
2022-11-12T04:24:21.896Z,210.00
2022-11-12T04:24:57.099Z,210.00
2022-11-12T04:25:32.398Z,210.00
2022-11-12T04:26:07.690Z,209.39
2022-11-12T04:26:43.292Z,210.00
2022-11-12T04:27:18.326Z,210.00
2022-11-12T04:27:53.658Z,209.88
2022-11-12T04:28:29.289Z,210.00
2022-11-12T04:29:04.164Z,210.00
2022-11-12T04:29:39.449Z,209.77
2022-11-12T04:30:14.648Z,209.39
2022-11-12T04:30:50.035Z,209.39
2022-11-12T04:31:25.577Z,210.00
2022-11-12T04:32:00.688Z,209.88
2022-11-12T04:32:35.902Z,209.28
2022-11-12T04:33:11.221Z,210.00
2022-11-12T04:33:46.505Z,210.00
2022-11-12T04:34:21.662Z,210.00
2022-11-12T04:34:56.975Z,210.00
2022-11-12T04:35:32.209Z,210.00
2022-11-12T04:36:07.309Z,209.88
2022-11-12T04:36:42.391Z,209.39
2022-11-12T04:37:22.338Z,209.88
2022-11-12T04:37:53.306Z,210.00
2022-11-12T04:38:29.038Z,134.05
2022-11-12T04:39:03.810Z,75.00
2022-11-12T04:39:39.023Z,75.00
2022-11-12T04:40:14.228Z,75.00
2022-11-12T04:40:49.528Z,75.00
2022-11-12T04:41:24.983Z,75.00
2022-11-12T04:42:00.173Z,75.00
2022-11-12T04:42:35.298Z,75.00
2022-11-12T04:43:10.590Z,75.00
2022-11-12T04:43:46.102Z,75.00
2022-11-12T04:44:21.293Z,75.00
2022-11-12T04:44:56.706Z,75.00
2022-11-12T04:45:32.217Z,75.00
2022-11-12T04:46:07.604Z,75.00
2022-11-12T04:46:42.799Z,75.00
2022-11-12T04:47:18.090Z,75.00
2022-11-12T04:47:53.435Z,75.00
2022-11-12T04:48:29.180Z,75.00
2022-11-12T04:49:03.871Z,75.00
2022-11-12T04:49:39.088Z,75.00
2022-11-12T04:50:14.303Z,75.00
2022-11-12T04:50:49.413Z,75.00
2022-11-12T04:51:24.516Z,75.00
2022-11-12T04:51:59.898Z,75.00
2022-11-12T04:52:35.248Z,75.00
2022-11-12T04:53:10.336Z,75.00
2022-11-12T04:53:45.475Z,75.00
2022-11-12T04:54:20.560Z,75.00
2022-11-12T04:54:55.654Z,75.00
2022-11-12T04:55:30.850Z,75.00
2022-11-12T04:56:06.052Z,75.00
2022-11-12T04:56:41.053Z,75.00
2022-11-12T04:57:16.250Z,75.00
2022-11-12T04:57:53.668Z,75.00
2022-11-12T04:58:26.792Z,75.00
2022-11-12T04:59:01.866Z,75.00
2022-11-12T04:59:37.049Z,75.00
2022-11-12T05:00:12.156Z,75.00
2022-11-12T05:00:47.347Z,34.78
2022-11-12T05:01:22.608Z,39.70
2022-11-12T05:01:57.662Z,75.00
2022-11-12T05:02:33.169Z,75.00
2022-11-12T05:03:08.167Z,63.83
2022-11-12T05:03:43.356Z,75.00
2022-11-12T05:04:18.647Z,51.85
2022-11-12T05:04:53.847Z,32.18
2022-11-12T05:05:33.591Z,30.00
2022-11-12T05:06:04.340Z,65.27
2022-11-12T05:06:39.985Z,30.00
2022-11-12T05:07:15.368Z,30.00
2022-11-12T05:07:50.539Z,30.00
2022-11-12T05:08:25.900Z,61.60
2022-11-12T05:09:00.749Z,75.00
2022-11-12T05:09:35.848Z,75.00
2022-11-12T05:10:11.334Z,75.00
2022-11-12T05:10:46.717Z,75.00
2022-11-12T05:11:22.015Z,75.00
2022-11-12T05:11:57.432Z,75.00
2022-11-12T05:12:32.629Z,75.00
2022-11-12T05:13:07.841Z,75.00
2022-11-12T05:13:43.031Z,75.00
2022-11-12T05:14:18.636Z,75.00
2022-11-12T05:14:53.921Z,75.00
2022-11-12T05:15:36.638Z,75.00
2022-11-12T05:16:11.797Z,75.00
2022-11-12T05:16:47.811Z,75.00
2022-11-12T05:17:23.028Z,75.00
2022-11-12T05:17:58.547Z,75.00
2022-11-12T05:18:33.756Z,75.00
2022-11-12T05:19:09.168Z,75.00
2022-11-12T05:19:45.060Z,75.00
2022-11-12T05:20:20.304Z,75.00
2022-11-12T05:20:55.577Z,75.00
2022-11-12T05:21:30.799Z,75.00
2022-11-12T05:22:05.898Z,75.00
2022-11-12T05:22:47.738Z,119.08
2022-11-12T05:23:16.538Z,74.31
2022-11-12T05:23:51.836Z,75.00
2022-11-12T05:24:41.124Z,75.00
2022-11-12T05:25:02.345Z,75.00
2022-11-12T05:25:37.320Z,63.83
2022-11-12T05:26:12.406Z,69.58
2022-11-12T05:26:47.504Z,75.00
2022-11-12T05:27:22.544Z,75.00
2022-11-12T05:27:57.863Z,75.00
2022-11-12T05:28:32.893Z,75.00
2022-11-12T05:29:08.862Z,147.84
2022-11-12T05:29:43.356Z,85.58
2022-11-12T05:30:18.353Z,210.00
2022-11-12T05:30:53.856Z,209.28
2022-11-12T05:31:29.147Z,73.45
2022-11-12T05:32:04.538Z,54.04
2022-11-12T05:32:39.971Z,30.00
2022-11-12T05:33:15.492Z,30.00
2022-11-12T05:33:50.676Z,30.00
2022-11-12T05:34:25.897Z,30.00
2022-11-12T05:35:01.185Z,30.00
2022-11-12T05:35:36.447Z,30.00
2022-11-12T05:36:11.735Z,30.00
2022-11-12T05:36:47.168Z,30.00
2022-11-12T05:37:22.364Z,30.00
2022-11-12T05:37:57.662Z,30.00
2022-11-12T05:38:32.995Z,30.00
2022-11-12T05:39:08.165Z,30.00
2022-11-12T05:39:43.592Z,30.00
2022-11-12T05:40:19.075Z,30.00
2022-11-12T05:40:54.384Z,75.00
2022-11-12T05:41:39.952Z,75.00
2022-11-12T05:42:13.291Z,75.00
2022-11-12T05:42:40.190Z,75.00
2022-11-12T05:43:15.847Z,75.00
2022-11-12T05:43:51.246Z,75.00
2022-11-12T05:44:26.667Z,111.52
2022-11-12T05:45:01.976Z,210.00
2022-11-12T05:45:37.188Z,210.82
2022-11-12T05:46:12.392Z,174.42
2022-11-12T05:46:47.687Z,147.39
2022-11-12T05:47:23.086Z,171.26
2022-11-12T05:47:58.419Z,133.83
2022-11-12T05:48:33.847Z,144.05
2022-11-12T05:49:08.968Z,188.18
2022-11-12T05:49:44.101Z,171.30
2022-11-12T05:50:19.303Z,204.88
2022-11-12T05:51:29.855Z,195.43
2022-11-12T05:52:05.288Z,214.48
2022-11-12T05:52:40.483Z,203.00
2022-11-12T05:53:15.741Z,289.12
2022-11-12T05:53:51.049Z,167.48
2022-11-12T05:54:26.460Z,143.02
2022-11-12T05:55:01.560Z,51.64
2022-11-12T05:55:37.275Z,186.64
2022-11-12T05:56:11.770Z,170.87
2022-11-12T05:56:47.122Z,159.31
2022-11-12T05:57:22.412Z,209.18
2022-11-12T05:57:57.855Z,186.13
2022-11-12T05:58:33.049Z,60.62
2022-11-12T05:59:08.371Z,289.81
2022-11-12T05:59:43.771Z,13.61
2022-11-12T06:00:18.686Z,190.53
2022-11-12T06:00:53.690Z,215.13
2022-11-12T06:01:29.005Z,195.80
2022-11-12T06:02:04.655Z,194.31
2022-11-12T06:02:39.708Z,168.56
2022-11-12T06:03:14.731Z,191.61
2022-11-12T06:03:49.840Z,218.07
2022-11-12T06:04:24.944Z,213.32
2022-11-12T06:05:00.371Z,177.45
2022-11-12T06:05:35.906Z,215.22
2022-11-12T06:06:11.422Z,229.27
2022-11-12T06:06:46.644Z,227.00
2022-11-12T06:07:21.913Z,223.56
2022-11-12T06:07:56.952Z,192.35
2022-11-12T06:08:32.355Z,215.08
2022-11-12T06:09:07.647Z,195.93
2022-11-12T06:09:42.885Z,181.57
2022-11-12T06:10:20.534Z,233.00
2022-11-12T06:10:53.222Z,228.50
2022-11-12T06:11:28.494Z,304.36
2022-11-12T06:12:03.809Z,340.30
2022-11-12T06:12:38.941Z,219.60
2022-11-12T06:13:13.870Z,208.68
2022-11-12T06:13:49.004Z,144.60
2022-11-12T06:14:24.020Z,203.98
2022-11-12T06:14:59.266Z,53.27
2022-11-12T06:15:39.146Z,246.34
2022-11-12T06:16:09.595Z,186.07
2022-11-12T06:16:44.909Z,129.60
2022-11-12T06:17:20.398Z,70.25
2022-11-12T06:17:55.821Z,252.18
2022-11-12T06:18:31.230Z,255.00
2022-11-12T06:19:06.345Z,217.95
2022-11-12T06:19:41.668Z,203.57
2022-11-12T06:20:16.780Z,176.21
2022-11-12T06:20:52.105Z,171.80
2022-11-12T06:21:27.563Z,170.30
2022-11-12T06:22:02.751Z,153.68
2022-11-12T06:22:37.987Z,173.26
2022-11-12T06:23:13.432Z,210.00
2022-11-12T06:23:48.779Z,223.50
2022-11-12T06:24:23.868Z,210.14
2022-11-12T06:24:59.490Z,165.00
2022-11-12T06:25:34.395Z,200.99
2022-11-12T06:26:09.921Z,71.18
2022-11-12T06:26:45.029Z,75.00
2022-11-12T06:27:20.367Z,75.00
2022-11-12T06:27:55.688Z,75.00
2022-11-12T06:28:31.200Z,226.40
2022-11-12T06:29:06.447Z,233.00
2022-11-12T06:29:41.684Z,233.00
2022-11-12T06:30:17.479Z,233.00
2022-11-12T06:30:51.925Z,233.00
2022-11-12T06:31:27.253Z,233.00
2022-11-12T06:32:02.700Z,233.00
2022-11-12T06:32:38.084Z,80.01
2022-11-12T06:33:13.322Z,226.40
2022-11-12T06:33:48.347Z,174.68
2022-11-12T06:34:23.659Z,170.62
2022-11-12T06:34:58.871Z,209.16
2022-11-12T06:35:33.992Z,209.28
2022-11-12T06:36:09.559Z,209.88
2022-11-12T06:36:45.022Z,210.00
2022-11-12T06:37:20.130Z,158.42
2022-11-12T06:37:55.449Z,75.00
2022-11-12T06:38:30.566Z,75.00
2022-11-12T06:39:05.848Z,75.00
2022-11-12T06:39:41.439Z,75.00
2022-11-12T06:40:16.766Z,63.81
2022-11-12T06:40:52.097Z,32.66
2022-11-12T06:41:27.313Z,119.42
2022-11-12T06:42:02.515Z,166.42
2022-11-12T06:42:37.931Z,75.00
2022-11-12T06:43:13.251Z,75.00
2022-11-12T06:43:48.366Z,75.00
2022-11-12T06:44:23.923Z,75.00
2022-11-12T06:44:59.132Z,66.01
2022-11-12T06:45:34.696Z,30.00
2022-11-12T06:46:10.024Z,30.00
2022-11-12T06:46:45.386Z,30.00
2022-11-12T06:47:20.823Z,147.88
2022-11-12T06:47:56.045Z,205.46
2022-11-12T06:48:31.405Z,70.97
2022-11-12T06:49:07.066Z,75.00
2022-11-12T06:49:42.364Z,46.44
2022-11-12T06:50:17.592Z,345.00
2022-11-12T06:50:52.970Z,30.00
2022-11-12T06:51:28.259Z,30.00
2022-11-12T06:52:03.721Z,30.00
2022-11-12T06:52:39.004Z,45.78
2022-11-12T06:53:14.453Z,90.79
2022-11-12T06:53:49.885Z,255.00
2022-11-12T06:54:25.082Z,242.35
2022-11-12T06:55:00.595Z,255.03
2022-11-12T06:55:35.703Z,30.00
2022-11-12T06:56:10.922Z,30.00
2022-11-12T06:56:46.316Z,30.00
2022-11-12T06:57:21.820Z,30.00
2022-11-12T06:57:56.945Z,30.00
2022-11-12T06:58:32.169Z,30.00
2022-11-12T06:59:07.493Z,30.00
2022-11-12T06:59:42.725Z,30.00
2022-11-12T07:00:17.856Z,30.00
2022-11-12T07:00:53.370Z,30.00
2022-11-12T07:01:28.622Z,30.00
2022-11-12T07:02:03.842Z,30.00
2022-11-12T07:02:38.914Z,30.00
2022-11-12T07:03:14.157Z,30.00
2022-11-12T07:03:49.443Z,29.29
2022-11-12T07:04:24.986Z,129.70
2022-11-12T07:05:00.267Z,222.10
2022-11-12T07:05:35.483Z,223.43
2022-11-12T07:06:10.799Z,209.39
2022-11-12T07:06:46.304Z,220.48
2022-11-12T07:07:21.775Z,209.39
2022-11-12T07:07:56.988Z,210.00
2022-11-12T07:08:32.309Z,210.00
2022-11-12T07:09:07.533Z,210.00
2022-11-12T07:09:42.935Z,161.25
2022-11-12T07:10:18.053Z,192.21
2022-11-12T07:10:53.270Z,167.39
2022-11-12T07:11:29.203Z,219.33
2022-11-12T07:12:04.317Z,174.70
2022-11-12T07:12:39.537Z,173.26
2022-11-12T07:13:15.130Z,244.40
2022-11-12T07:13:50.272Z,255.00
2022-11-12T07:14:25.819Z,255.00
2022-11-12T07:15:01.119Z,229.80
2022-11-12T07:15:36.732Z,75.00
2022-11-12T07:16:12.041Z,75.00
2022-11-12T07:16:47.250Z,75.00
2022-11-12T07:17:22.563Z,75.00
2022-11-12T07:17:57.867Z,67.44
2022-11-12T07:18:33.208Z,75.00
2022-11-12T07:19:08.411Z,75.00
2022-11-12T07:19:43.851Z,75.00
2022-11-12T07:20:19.174Z,75.00
2022-11-12T07:20:54.422Z,75.00
2022-11-12T07:21:29.453Z,121.24
2022-11-12T07:22:04.655Z,176.19
2022-11-12T07:22:40.194Z,170.29
2022-11-12T07:23:15.704Z,173.30
2022-11-12T07:23:50.834Z,167.66
2022-11-12T07:24:26.063Z,173.26